createdAt,value
2023-02-19T14:34:03.915Z,1.80
2023-02-19T14:35:59.026Z,1.70
2023-02-19T14:37:50.817Z,2.40
2023-02-19T14:39:43.643Z,3.70
2023-02-19T14:41:38.095Z,1.30
2023-02-19T14:43:28.981Z,2.10
2023-02-19T14:45:20.390Z,2.10
2023-02-19T14:47:16.800Z,2.80
2023-02-19T14:49:25.567Z,1.50
2023-02-19T14:51:40.893Z,3.80
2023-02-19T14:53:31.672Z,1.60
2023-02-19T14:55:24.803Z,3.40
2023-02-19T14:57:20.757Z,2.20
2023-02-19T14:59:10.946Z,2.90
2023-02-19T15:01:01.025Z,3.00
2023-02-19T15:02:52.789Z,3.10
2023-02-19T15:04:43.268Z,2.80
2023-02-19T15:06:35.470Z,1.80
2023-02-19T15:08:52.365Z,1.70
2023-02-19T15:10:43.146Z,2.00
2023-02-19T15:12:46.198Z,4.80
2023-02-19T15:14:36.371Z,7.60
2023-02-19T15:16:28.755Z,9.50
2023-02-19T15:21:51.525Z,1.60
2023-02-19T15:23:42.695Z,2.20
2023-02-19T15:25:35.406Z,1.90
2023-02-19T15:29:18.310Z,2.20
2023-02-19T15:31:14.425Z,3.50
2023-02-19T15:33:16.241Z,2.20
2023-02-19T15:35:07.088Z,4.60
2023-02-19T15:37:06.526Z,2.10
2023-02-19T15:39:01.226Z,4.30
2023-02-19T15:40:52.067Z,4.80
2023-02-19T15:42:46.640Z,4.20
2023-02-19T15:44:45.616Z,4.50
2023-02-19T15:46:36.829Z,3.80
2023-02-19T15:48:31.474Z,4.60
2023-02-19T15:50:40.941Z,5.80
2023-02-19T15:52:36.123Z,2.00
2023-02-19T15:54:49.408Z,1.70
2023-02-19T15:56:41.631Z,4.00
2023-02-19T15:59:00.388Z,2.20
2023-02-19T16:01:00.468Z,2.90
2023-02-19T16:02:51.344Z,4.50
2023-02-19T16:04:43.369Z,4.00
2023-02-19T16:06:56.982Z,1.50
2023-02-19T16:09:16.156Z,4.90
2023-02-19T16:11:26.926Z,3.60
2023-02-19T16:13:23.439Z,4.30
2023-02-19T16:15:14.338Z,3.40
2023-02-19T16:17:10.824Z,2.80
2023-02-19T16:19:00.945Z,4.50
2023-02-19T16:20:51.323Z,4.70
2023-02-19T16:22:42.352Z,4.60
2023-02-19T16:24:36.633Z,1.60
2023-02-19T16:26:27.598Z,8.00
2023-02-19T16:28:23.524Z,4.10
2023-02-19T16:30:16.481Z,2.50
2023-02-19T16:32:14.087Z,2.90
2023-02-19T16:34:18.444Z,4.70
2023-02-19T16:38:13.947Z,6.20
2023-02-19T16:40:24.117Z,7.90
2023-02-19T16:42:14.618Z,4.10
2023-02-19T16:44:20.458Z,27.00
2023-02-19T16:46:11.895Z,17.80
2023-02-19T16:48:03.637Z,9.10
2023-02-19T16:49:55.088Z,3.90
2023-02-19T16:51:45.974Z,8.30
2023-02-19T16:53:36.347Z,6.70
2023-02-19T16:55:27.428Z,5.10
2023-02-19T16:57:18.439Z,12.30
2023-02-19T16:59:08.847Z,11.40
2023-02-19T17:00:59.277Z,5.60
2023-02-19T17:02:56.795Z,7.90
2023-02-19T17:04:48.989Z,4.90
2023-02-19T17:06:39.202Z,4.40
2023-02-19T17:08:36.741Z,5.50
2023-02-19T17:10:27.519Z,5.20
2023-02-19T17:12:17.940Z,7.50
2023-02-19T17:14:08.796Z,7.90
2023-02-19T17:16:00.158Z,8.30
2023-02-19T17:17:50.421Z,7.30
2023-02-19T17:19:40.755Z,6.10
2023-02-19T17:21:33.802Z,9.10
2023-02-19T17:23:24.609Z,6.40
2023-02-19T17:25:15.016Z,11.90
2023-02-19T17:27:10.078Z,9.00
2023-02-19T17:29:03.746Z,16.30
2023-02-19T17:30:54.078Z,13.60
2023-02-19T17:32:44.110Z,17.60
2023-02-19T17:34:34.254Z,12.40
2023-02-19T17:36:28.503Z,12.10
2023-02-19T17:38:18.705Z,13.20
2023-02-19T17:40:33.429Z,11.00
2023-02-19T17:42:25.244Z,9.90
2023-02-19T17:44:15.483Z,9.30
2023-02-19T17:46:05.740Z,7.30
2023-02-19T17:47:55.868Z,8.10
2023-02-19T17:49:45.810Z,11.70
2023-02-19T17:51:36.001Z,12.90
2023-02-19T17:53:26.224Z,16.90
2023-02-19T17:55:17.804Z,9.20
2023-02-19T17:57:07.976Z,10.10
2023-02-19T17:58:57.880Z,9.50
2023-02-19T18:00:51.174Z,8.20
2023-02-19T18:02:41.491Z,7.70
2023-02-19T18:04:31.869Z,8.90
2023-02-19T18:06:22.276Z,7.80
2023-02-19T18:08:13.127Z,8.70
2023-02-19T18:10:05.166Z,8.80
2023-02-19T18:11:55.472Z,10.90
2023-02-19T18:13:45.596Z,12.60
2023-02-19T18:15:35.934Z,7.10
2023-02-19T18:17:26.334Z,13.40
2023-02-19T18:19:16.963Z,9.70
2023-02-19T18:21:08.493Z,21.90
2023-02-19T18:22:58.702Z,15.70
2023-02-19T18:24:50.084Z,13.90
2023-02-19T18:26:40.531Z,5.90
2023-02-19T18:28:30.285Z,14.80
2023-02-19T18:30:22.187Z,7.60
2023-02-19T18:32:12.506Z,9.10
2023-02-19T18:34:03.987Z,5.10
2023-02-19T18:35:54.241Z,10.70
2023-02-19T18:37:44.486Z,12.30
2023-02-19T18:39:34.840Z,6.80
2023-02-19T18:41:24.860Z,7.40
2023-02-19T18:43:15.128Z,10.30
2023-02-19T18:45:05.407Z,7.00
2023-02-19T18:46:55.423Z,6.60
2023-02-19T18:48:46.823Z,8.20
2023-02-19T18:50:37.281Z,15.80
2023-02-19T18:52:27.527Z,13.00
2023-02-19T18:54:23.429Z,13.60
2023-02-19T18:56:13.651Z,7.90
2023-02-19T18:58:06.337Z,5.00
2023-02-19T18:59:56.874Z,7.70
2023-02-19T19:01:47.216Z,2.30
2023-02-19T19:03:37.311Z,5.80
2023-02-19T19:05:27.280Z,7.00
2023-02-19T19:07:17.446Z,9.00
2023-02-19T19:09:08.007Z,8.90
2023-02-19T19:10:58.021Z,5.70
2023-02-19T19:12:48.240Z,17.80
2023-02-19T19:14:38.815Z,13.20
2023-02-19T19:16:29.317Z,6.90
2023-02-19T19:18:19.139Z,10.40
2023-02-19T19:20:09.323Z,11.30
2023-02-19T19:21:59.412Z,12.20
2023-02-19T19:23:49.590Z,8.90
2023-02-19T19:25:39.825Z,5.90
2023-02-19T19:27:29.788Z,5.10
2023-02-19T19:29:21.402Z,8.50
2023-02-19T19:31:14.121Z,7.10
2023-02-19T19:33:04.654Z,7.50
2023-02-19T19:34:54.893Z,7.40
2023-02-19T19:36:46.085Z,6.80
2023-02-19T19:38:36.502Z,10.70
2023-02-19T19:40:26.803Z,8.70
2023-02-19T19:42:16.684Z,7.40
2023-02-19T19:44:07.887Z,8.90
2023-02-19T19:45:59.072Z,12.50
2023-02-19T19:47:49.366Z,8.70
2023-02-19T19:49:40.508Z,5.60
2023-02-19T19:51:32.561Z,7.10
2023-02-19T19:53:23.572Z,8.00
2023-02-19T19:55:13.754Z,4.60
2023-02-19T19:57:03.773Z,8.00
2023-02-19T19:58:54.207Z,6.40
2023-02-19T20:00:44.195Z,3.20
2023-02-19T20:15:25.871Z,13.50
2023-02-19T20:17:16.072Z,15.60
2023-02-19T20:19:06.934Z,12.30
2023-02-19T20:20:57.081Z,22.40
2023-02-19T20:22:47.246Z,16.20
2023-02-19T20:24:37.686Z,15.50
2023-02-19T20:26:29.577Z,12.90
2023-02-19T20:28:19.841Z,15.40
2023-02-19T20:30:11.848Z,7.70
2023-02-19T20:32:03.225Z,10.40
2023-02-19T20:33:54.197Z,12.20
2023-02-19T20:35:44.824Z,17.20
2023-02-19T20:37:38.639Z,18.90
2023-02-19T20:39:29.322Z,10.30
2023-02-19T20:41:19.537Z,8.50
2023-02-19T20:43:12.283Z,12.20
2023-02-19T20:45:03.160Z,12.40
2023-02-19T20:46:55.007Z,13.60
2023-02-19T20:48:45.822Z,14.00
2023-02-19T20:50:36.675Z,9.20
2023-02-19T20:52:29.823Z,7.50
2023-02-19T20:54:25.276Z,8.90
2023-02-19T20:56:17.948Z,13.80
2023-02-19T20:58:08.434Z,6.80
2023-02-19T20:59:58.748Z,12.20
2023-02-19T21:01:52.234Z,11.00
2023-02-19T21:03:42.567Z,8.60
2023-02-19T21:05:32.790Z,13.20
2023-02-19T21:07:24.013Z,10.20
2023-02-19T21:09:14.381Z,7.30
2023-02-19T21:11:07.757Z,5.30
2023-02-19T21:12:58.200Z,7.20
2023-02-19T21:14:48.781Z,8.20
2023-02-19T21:16:39.310Z,14.80
2023-02-19T21:18:29.250Z,12.80
2023-02-19T21:20:20.473Z,15.30
2023-02-19T21:22:10.874Z,11.20
2023-02-19T21:24:01.796Z,16.80
2023-02-19T21:25:54.513Z,10.60
2023-02-19T21:27:45.464Z,8.00
2023-02-19T21:29:41.694Z,6.80
2023-02-19T21:31:40.638Z,8.30
2023-02-19T21:33:32.616Z,14.50
2023-02-19T21:35:25.966Z,8.40
2023-02-19T21:41:00.488Z,8.30
2023-02-19T21:42:51.022Z,6.70
2023-02-19T21:44:43.030Z,12.00
2023-02-19T21:46:33.389Z,11.10
2023-02-19T21:48:23.516Z,9.10
2023-02-19T21:50:13.946Z,10.20
2023-02-19T21:52:07.334Z,11.30
2023-02-19T21:53:58.076Z,7.20
2023-02-19T21:55:58.312Z,11.50
2023-02-19T21:58:04.424Z,5.50
2023-02-19T22:01:45.216Z,6.80
2023-02-19T22:03:35.462Z,4.80
2023-02-19T22:05:25.635Z,5.80
2023-02-19T22:07:15.861Z,10.10
2023-02-19T22:09:10.909Z,4.40
2023-02-19T22:11:01.311Z,7.50
2023-02-19T22:12:51.558Z,10.10
2023-02-19T22:14:42.330Z,7.50
2023-02-19T22:16:32.496Z,2.90
2023-02-19T22:18:22.790Z,7.80
2023-02-19T22:20:13.290Z,6.80
2023-02-19T22:22:04.445Z,5.20
2023-02-19T22:23:54.942Z,6.10
2023-02-19T22:25:44.978Z,8.90
2023-02-19T22:27:35.253Z,5.60
2023-02-19T22:29:25.544Z,4.30
2023-02-19T22:31:23.918Z,7.10
2023-02-19T22:33:17.198Z,4.50
2023-02-19T22:35:07.657Z,4.60
2023-02-19T22:36:58.020Z,7.60
2023-02-19T22:38:48.509Z,4.10
2023-02-19T22:40:38.571Z,6.20
2023-02-19T22:42:28.858Z,4.10
2023-02-19T22:44:19.473Z,6.50
2023-02-19T22:46:16.267Z,5.10
2023-02-19T22:48:06.312Z,6.80
2023-02-19T22:49:56.248Z,6.10
2023-02-19T22:51:48.120Z,2.80
2023-02-19T22:53:46.549Z,9.90
2023-02-19T22:55:37.175Z,4.50
2023-02-19T22:57:28.217Z,5.00
2023-02-19T22:59:18.352Z,8.60
2023-02-19T23:01:09.781Z,7.50
2023-02-19T23:03:00.271Z,6.40
2023-02-19T23:04:50.879Z,7.00
2023-02-19T23:06:46.706Z,5.80
2023-02-19T23:08:37.243Z,5.30
2023-02-19T23:10:27.766Z,6.50
2023-02-19T23:12:17.933Z,4.60
2023-02-19T23:14:08.434Z,5.20
2023-02-19T23:15:58.309Z,4.80
2023-02-19T23:17:48.535Z,7.40
2023-02-19T23:19:38.439Z,4.10
2023-02-19T23:21:28.252Z,4.00
2023-02-19T23:23:18.326Z,4.20
2023-02-19T23:25:08.368Z,3.60
2023-02-19T23:26:59.951Z,7.70
2023-02-19T23:28:50.470Z,5.90
2023-02-19T23:30:40.881Z,2.00
2023-02-19T23:32:31.467Z,4.40
2023-02-19T23:34:21.508Z,7.40
2023-02-19T23:36:13.379Z,5.50
2023-02-19T23:38:03.719Z,5.50
2023-02-19T23:39:53.889Z,4.90
2023-02-19T23:42:01.792Z,7.90
2023-02-19T23:43:52.071Z,4.50
2023-02-19T23:45:42.313Z,8.90
2023-02-19T23:47:32.675Z,4.80
2023-02-19T23:49:23.210Z,5.50
2023-02-19T23:51:13.374Z,9.40
2023-02-19T23:53:04.139Z,6.70
2023-02-19T23:54:55.219Z,6.30
2023-02-19T23:56:45.417Z,4.10
2023-02-19T23:58:35.495Z,8.30
